Time;durP1;ratioP1;P1;durP2;ratioP2;P2;SDS_P1;SDS_P2;PMS_P1;PMS_P2;Temp;Humidity;BMP_temperature;BMP_pressure;BME280_temperature;BME280_humidity;BME280_pressure;Samples;Min_cycle;Max_cycle;Signal;HPM_P1;HPM_P2
2022/10/27 00:00:44;;;;;;;0.50;0.20;;;26.90;63.00;;;;;;5006502;28;20402;-83
2022/10/27 00:03:12;;;;;;;2.17;0.40;;;27.10;60.70;;;;;;4995475;28;20571;-83
2022/10/27 00:05:40;;;;;;;0.22;0.20;;;27.00;61.90;;;;;;4994311;28;20443;-82
2022/10/27 00:08:07;;;;;;;0.63;0.30;;;27.00;62.30;;;;;;4994186;28;20397;-83
2022/10/27 00:10:34;;;;;;;0.43;0.40;;;27.00;61.60;;;;;;4994129;28;20391;-83
2022/10/27 00:13:01;;;;;;;0.68;0.30;;;27.10;61.40;;;;;;4994085;28;20381;-84
2022/10/27 00:15:28;;;;;;;0.90;0.50;;;27.30;61.70;;;;;;4994129;28;20415;-82
2022/10/27 00:17:55;;;;;;;1.10;0.30;;;27.40;60.70;;;;;;4993799;28;20381;-83
2022/10/27 00:20:22;;;;;;;0.60;0.40;;;27.60;59.90;;;;;;4994037;28;20444;-84
2022/10/27 00:22:49;;;;;;;0.60;0.40;;;27.60;60.20;;;;;;4993918;28;20381;-84
2022/10/27 00:25:16;;;;;;;0.88;0.30;;;27.50;58.90;;;;;;4994197;28;20434;-82
2022/10/27 00:27:43;;;;;;;2.22;0.70;;;27.40;59.90;;;;;;4993716;28;20381;-85
2022/10/27 00:30:10;;;;;;;4.82;0.70;;;27.60;58.70;;;;;;4993482;28;20524;-83
2022/10/27 00:32:37;;;;;;;1.00;0.47;;;27.70;56.10;;;;;;4993679;28;20392;-84
2022/10/27 00:35:05;;;;;;;0.55;0.35;;;27.70;57.10;;;;;;4993632;28;20495;-84
2022/10/27 00:37:32;;;;;;;0.93;0.63;;;28.00;58.50;;;;;;4993459;28;20387;-83
2022/10/27 00:39:59;;;;;;;1.10;0.50;;;28.30;56.90;;;;;;4996716;28;20451;-83
2022/10/27 00:42:26;;;;;;;0.93;0.40;;;28.40;56.10;;;;;;4993831;28;20525;-84
2022/10/27 00:44:53;;;;;;;1.95;0.50;;;28.60;55.30;;;;;;4993621;28;20424;-83
2022/10/27 00:47:28;;;;;;;2.25;0.60;;;28.50;56.20;;;;;;4992131;28;20741;-83
2022/10/27 00:50:00;;;;;;;1.63;0.45;;;28.20;56.70;;;;;;4994993;28;20472;-82
2022/10/27 00:52:39;;;;;;;0.80;0.30;;;27.80;55.90;;;;;;4993243;28;20459;-84
2022/10/27 00:55:38;;;;;;;0.60;0.40;;;27.60;58.10;;;;;;4993208;28;20421;-83
2022/10/27 00:58:12;;;;;;;0.70;0.30;;;28.10;58.70;;;;;;4991203;28;20391;-84
2022/10/27 01:00:41;;;;;;;3.00;0.50;;;28.60;54.40;;;;;;4992995;28;20452;-84
2022/10/27 01:03:11;;;;;;;0.90;0.52;;;28.30;56.20;;;;;;4992921;28;20391;-81
2022/10/27 01:05:40;;;;;;;1.10;0.50;;;28.20;55.60;;;;;;4993068;28;20512;-82
2022/10/27 01:08:07;;;;;;;0.60;0.50;;;28.10;56.70;;;;;;4993373;28;20381;-81
2022/10/27 01:10:35;;;;;;;0.93;0.60;;;27.70;56.40;;;;;;4993215;28;20396;-82
2022/10/27 01:13:02;;;;;;;0.80;0.53;;;27.30;57.20;;;;;;4992853;28;20435;-82
2022/10/27 01:15:35;;;;;;;5.33;1.00;;;27.00;60.10;;;;;;4992984;28;20405;-79
2022/10/27 01:18:26;;;;;;;6.63;1.20;;;24.90;72.90;;;;;;4992506;28;20444;-80
2022/10/27 01:21:11;;;;;;;4.82;1.10;;;21.80;93.30;;;;;;4992913;28;20499;-81
2022/10/27 01:23:50;;;;;;;17.05;1.70;;;20.00;99.90;;;;;;4992580;28;20409;-82
2022/10/27 01:26:37;;;;;;;4.35;1.20;;;19.00;99.90;;;;;;4992941;28;20380;-80
2022/10/27 01:29:13;;;;;;;2.85;0.90;;;18.50;99.90;;;;;;4990578;28;20438;-80
2022/10/27 01:32:04;;;;;;;3.15;1.17;;;18.30;99.90;;;;;;4992576;28;20413;-81
2022/10/27 01:34:48;;;;;;;2.05;1.02;;;18.20;99.90;;;;;;4993166;28;20829;-80
2022/10/27 01:37:30;;;;;;;3.70;1.20;;;18.40;99.90;;;;;;5007407;28;20472;-81
2022/10/27 01:40:07;;;;;;;2.83;1.10;;;18.70;99.90;;;;;;4992586;28;20896;-81
2022/10/27 01:42:44;;;;;;;2.08;0.88;;;19.30;99.90;;;;;;4992804;28;20377;-81
2022/10/27 01:45:14;;;;;;;1.85;0.75;;;19.40;99.90;;;;;;5001774;28;20417;-81
2022/10/27 01:47:41;;;;;;;2.70;0.88;;;19.70;99.90;;;;;;4992362;28;20401;-81
2022/10/27 01:50:09;;;;;;;2.05;0.80;;;20.00;99.90;;;;;;4992378;28;20454;-81
2022/10/27 01:52:48;;;;;;;1.50;0.80;;;20.30;99.90;;;;;;4992227;28;20377;-79
2022/10/27 01:55:28;;;;;;;2.30;0.70;;;20.70;99.90;;;;;;4992363;28;20452;-80
2022/10/27 01:58:10;;;;;;;1.70;0.70;;;21.20;99.90;;;;;;4992003;28;20749;-81
2022/10/27 02:01:07;;;;;;;2.88;0.90;;;21.30;99.90;;;;;;4992357;28;20380;-80
2022/10/27 02:03:57;;;;;;;1.20;0.50;;;21.80;99.90;;;;;;4980476;28;20377;-80
2022/10/27 02:06:33;;;;;;;1.55;0.60;;;21.90;99.90;;;;;;4989369;28;20845;-80
2022/10/27 02:09:34;;;;;;;1.40;0.70;;;21.90;99.90;;;;;;4990590;28;20964;-80
2022/10/27 02:12:08;;;;;;;1.92;0.70;;;21.80;99.90;;;;;;4989544;28;20460;-82
2022/10/27 02:14:37;;;;;;;1.40;0.60;;;21.80;99.90;;;;;;4989406;28;20401;-81
2022/10/27 02:17:08;;;;;;;1.13;0.70;;;21.90;99.90;;;;;;4988950;28;20492;-81
2022/10/27 02:19:41;;;;;;;1.77;0.70;;;22.00;99.90;;;;;;4989561;28;20373;-81
2022/10/27 02:22:08;;;;;;;1.50;0.60;;;22.10;99.90;;;;;;4989299;28;20443;-82
2022/10/27 02:24:35;;;;;;;1.30;0.65;;;22.20;99.90;;;;;;4989475;28;20377;-81
2022/10/27 02:27:15;;;;;;;1.23;0.47;;;22.20;99.90;;;;;;4972731;28;20470;-81
2022/10/27 02:29:48;;;;;;;1.63;0.50;;;22.10;99.90;;;;;;4988878;28;20781;-80
2022/10/27 02:32:22;;;;;;;1.45;0.50;;;22.20;99.90;;;;;;4972761;28;20884;-83
2022/10/27 02:34:51;;;;;;;0.80;0.40;;;22.50;99.90;;;;;;4988949;28;20425;-82
2022/10/27 02:37:36;;;;;;;1.00;0.40;;;22.80;99.90;;;;;;4988876;28;20381;-82
2022/10/27 02:40:04;;;;;;;0.65;0.40;;;23.10;99.90;;;;;;4989096;28;20420;-83
2022/10/27 02:42:31;;;;;;;2.10;0.50;;;23.50;99.90;;;;;;4988943;28;20882;-83
2022/10/27 02:44:58;;;;;;;0.57;0.30;;;23.70;98.50;;;;;;4999826;28;20887;-83
2022/10/27 02:47:25;;;;;;;1.17;0.50;;;23.90;98.00;;;;;;4989150;28;20412;-82
2022/10/27 02:49:52;;;;;;;1.00;0.40;;;24.00;95.40;;;;;;4991367;28;20940;-83
2022/10/27 02:52:19;;;;;;;0.82;0.50;;;24.20;96.60;;;;;;4991507;28;20729;-83
2022/10/27 02:54:47;;;;;;;2.00;0.60;;;24.20;95.40;;;;;;4991096;28;20397;-82
2022/10/27 02:57:15;;;;;;;1.15;0.60;;;24.30;95.00;;;;;;4991198;28;20939;-81
2022/10/27 02:59:43;;;;;;;2.00;0.50;;;24.30;94.40;;;;;;4991073;28;20431;-82
2022/10/27 03:02:10;;;;;;;0.75;0.40;;;24.10;92.90;;;;;;4989830;28;20885;-81
2022/10/27 03:04:37;;;;;;;0.87;0.40;;;24.10;92.80;;;;;;4991170;28;20461;-82
2022/10/27 03:07:04;;;;;;;1.15;0.50;;;24.10;93.20;;;;;;4991266;28;20383;-83
2022/10/27 03:09:31;;;;;;;1.15;0.43;;;24.00;93.10;;;;;;4990854;28;20393;-83
2022/10/27 03:11:58;;;;;;;1.73;0.60;;;24.00;92.80;;;;;;4991007;28;20411;-83
2022/10/27 03:14:25;;;;;;;2.00;0.50;;;24.20;92.60;;;;;;5006082;28;20474;-81
2022/10/27 03:16:52;;;;;;;1.50;0.50;;;24.40;92.40;;;;;;4991104;28;20389;-82
2022/10/27 03:19:19;;;;;;;0.90;0.50;;;24.70;90.70;;;;;;4990923;28;20412;-81
2022/10/27 03:21:46;;;;;;;2.58;0.60;;;24.80;89.60;;;;;;4990737;28;20380;-81
2022/10/27 03:24:13;;;;;;;1.50;0.50;;;24.90;84.40;;;;;;4989803;28;20393;-80
2022/10/27 03:26:40;;;;;;;0.80;0.40;;;25.00;82.90;;;;;;4990775;28;20448;-81
2022/10/27 03:29:07;;;;;;;0.80;0.30;;;25.30;77.80;;;;;;4995039;28;20462;-81
2022/10/27 03:31:34;;;;;;;0.30;0.30;;;25.30;69.80;;;;;;4995181;28;20490;-82
2022/10/27 03:34:01;;;;;;;0.50;0.40;;;25.30;71.10;;;;;;4995072;28;20927;-82
2022/10/27 03:36:29;;;;;;;0.70;0.60;;;25.30;71.50;;;;;;5004802;28;20449;-83
2022/10/27 03:38:55;;;;;;;0.50;0.40;;;25.30;72.30;;;;;;4999445;28;20381;-83
2022/10/27 03:41:22;;;;;;;0.47;0.30;;;25.30;71.80;;;;;;4994904;28;20384;-84
2022/10/27 03:43:49;;;;;;;0.40;0.40;;;25.20;71.70;;;;;;4995310;28;20459;-84
2022/10/27 03:46:16;;;;;;;1.67;0.40;;;25.10;70.60;;;;;;4994799;28;20435;-83
2022/10/27 03:48:43;;;;;;;0.90;0.40;;;25.10;69.90;;;;;;4994770;28;20930;-84
2022/10/27 03:51:10;;;;;;;0.70;0.40;;;25.20;68.80;;;;;;4998049;28;20396;-83
2022/10/27 03:53:38;;;;;;;0.57;0.40;;;25.30;71.10;;;;;;4994832;28;20391;-82
2022/10/27 03:56:05;;;;;;;0.38;0.30;;;25.40;68.80;;;;;;4994490;28;20408;-82
2022/10/27 03:58:32;;;;;;;0.30;0.30;;;25.60;67.90;;;;;;4999564;28;20439;-83
2022/10/27 04:01:04;;;;;;;0.80;0.30;;;25.70;68.30;;;;;;4994132;28;20424;-86
2022/10/27 04:03:31;;;;;;;2.05;0.30;;;25.70;67.80;;;;;;4997259;28;20409;-81
2022/10/27 04:05:58;;;;;;;0.90;0.50;;;25.70;68.90;;;;;;4994390;28;20479;-83
2022/10/27 04:08:26;;;;;;;0.60;0.30;;;25.70;68.20;;;;;;4993855;28;20405;-87
2022/10/27 04:10:53;;;;;;;0.52;0.30;;;25.70;66.30;;;;;;4994601;28;20385;-85
2022/10/27 04:13:20;;;;;;;0.47;0.27;;;25.50;66.00;;;;;;4994454;28;20373;-84
2022/10/27 04:15:47;;;;;;;1.70;0.35;;;25.50;66.60;;;;;;4994816;28;20405;-88
2022/10/27 04:18:14;;;;;;;0.20;0.20;;;25.50;69.60;;;;;;4993918;28;20447;-85
2022/10/27 04:20:41;;;;;;;1.20;0.20;;;25.60;65.30;;;;;;4993833;28;20389;-86
2022/10/27 04:23:08;;;;;;;0.47;0.30;;;25.60;66.10;;;;;;4993813;28;20389;-87
2022/10/27 04:25:35;;;;;;;0.47;0.30;;;26.00;65.40;;;;;;4994358;28;20388;-87
2022/10/27 04:48:16;;;;;;;0.50;0.30;;;25.90;63.20;;;;;;4983405;28;20450;-84
2022/10/27 04:50:43;;;;;;;0.30;0.30;;;26.90;62.50;;;;;;4993493;28;20818;-83
2022/10/27 04:53:10;;;;;;;0.50;0.38;;;28.10;59.30;;;;;;4993875;28;20904;-83
2022/10/27 04:55:37;;;;;;;0.70;0.40;;;28.50;57.50;;;;;;4993752;28;20416;-83
2022/10/27 04:58:04;;;;;;;0.80;0.30;;;27.80;58.80;;;;;;4993630;28;20373;-85
2022/10/27 05:00:31;;;;;;;0.38;0.38;;;27.30;61.40;;;;;;4993539;28;20388;-84
2022/10/27 05:02:59;;;;;;;0.50;0.40;;;27.10;60.80;;;;;;4993213;28;20381;-83
2022/10/27 05:05:28;;;;;;;0.65;0.38;;;26.80;61.40;;;;;;4992510;28;20491;-82
2022/10/27 05:08:03;;;;;;;9.00;1.50;;;26.50;61.70;;;;;;4993452;28;20389;-83
2022/10/27 05:10:31;;;;;;;25.77;4.60;;;26.30;62.20;;;;;;4993300;28;20400;-86
2022/10/27 05:12:59;;;;;;;1.07;0.60;;;26.60;63.60;;;;;;4993211;28;20381;-82
2022/10/27 05:15:26;;;;;;;1.80;0.80;;;27.30;59.20;;;;;;4993297;28;20440;-84
2022/10/27 05:17:53;;;;;;;0.88;0.40;;;27.50;58.40;;;;;;4993447;28;20389;-82
2022/10/27 05:20:21;;;;;;;0.97;0.30;;;26.90;58.00;;;;;;4992192;28;20884;-82
2022/10/27 05:22:48;;;;;;;0.63;0.40;;;27.00;57.50;;;;;;4997821;28;20381;-82
2022/10/27 05:25:15;;;;;;;0.35;0.32;;;27.80;56.30;;;;;;4999996;28;20760;-88
2022/10/27 05:27:45;;;;;;;0.65;0.40;;;28.20;55.60;;;;;;4999190;28;20396;-87
2022/10/27 05:30:14;;;;;;;1.25;0.60;;;28.20;56.20;;;;;;4997704;28;20381;-93
2022/10/27 05:32:41;;;;;;;2.80;0.90;;;28.80;56.90;;;;;;4999805;28;20408;-92
2022/10/27 05:35:09;;;;;;;6.78;1.05;;;28.90;57.10;;;;;;4997369;28;20401;-84
2022/10/27 05:37:36;;;;;;;1.60;0.38;;;29.10;55.50;;;;;;4996666;28;20420;-82
2022/10/27 05:40:03;;;;;;;1.52;0.30;;;28.90;51.20;;;;;;5010611;28;20454;-82
2022/10/27 05:42:30;;;;;;;1.23;0.40;;;28.60;52.70;;;;;;5002891;28;20377;-84
2022/10/27 05:44:57;;;;;;;0.50;0.30;;;28.50;52.20;;;;;;4998332;28;20380;-85
2022/10/27 05:47:24;;;;;;;0.65;0.30;;;28.10;52.00;;;;;;4995188;28;20455;-87
2022/10/27 05:49:51;;;;;;;1.23;0.43;;;27.60;53.40;;;;;;4997955;28;20727;-86
2022/10/27 05:52:18;;;;;;;2.53;0.40;;;27.80;51.80;;;;;;5000136;28;20400;-79
2022/10/27 05:54:45;;;;;;;0.20;0.20;;;27.90;51.20;;;;;;5002727;28;20412;-83
2022/10/27 05:57:12;;;;;;;1.02;0.30;;;28.00;51.00;;;;;;5001178;28;20922;-83
2022/10/27 05:59:39;;;;;;;0.90;0.30;;;28.00;51.80;;;;;;4997512;28;20460;-81
2022/10/27 06:02:08;;;;;;;0.40;0.30;;;28.30;50.90;;;;;;4995268;28;20384;-80
2022/10/27 06:04:35;;;;;;;0.60;0.40;;;28.50;50.90;;;;;;4993147;28;20385;-81
2022/10/27 06:07:02;;;;;;;0.45;0.40;;;28.60;50.50;;;;;;4993557;28;20384;-81
2022/10/27 06:09:29;;;;;;;1.63;0.30;;;28.40;50.70;;;;;;4994258;28;20925;-82
2022/10/27 06:11:56;;;;;;;0.20;0.20;;;28.40;50.10;;;;;;4993138;28;20429;-83
2022/10/27 06:14:23;;;;;;;2.00;0.52;;;28.60;49.30;;;;;;4993677;28;20403;-83
2022/10/27 06:16:50;;;;;;;1.05;0.35;;;28.40;50.50;;;;;;4995335;28;20384;-82
2022/10/27 06:19:17;;;;;;;1.30;0.40;;;28.70;49.70;;;;;;4992364;28;20407;-83
2022/10/27 06:21:46;;;;;;;0.38;0.30;;;28.70;49.40;;;;;;4996091;28;20445;-83
2022/10/27 06:24:13;;;;;;;2.75;0.47;;;28.30;49.70;;;;;;4996944;28;20988;-83
2022/10/27 06:26:40;;;;;;;0.85;0.47;;;28.30;49.80;;;;;;5007434;28;20401;-84
2022/10/27 06:29:07;;;;;;;0.70;0.50;;;28.20;49.70;;;;;;4995107;28;20393;-83
2022/10/27 06:31:34;;;;;;;1.40;0.60;;;28.10;49.70;;;;;;4996809;28;20404;-84
2022/10/27 06:34:01;;;;;;;3.65;1.20;;;28.20;49.90;;;;;;4994936;28;20431;-82
2022/10/27 06:36:28;;;;;;;1.02;0.50;;;28.20;49.80;;;;;;4996347;28;20757;-83
2022/10/27 06:38:57;;;;;;;0.93;0.40;;;28.40;50.50;;;;;;4996385;28;20381;-86
2022/10/27 06:41:24;;;;;;;1.05;0.40;;;28.50;48.70;;;;;;4996464;28;20389;-84
2022/10/27 06:43:51;;;;;;;1.20;0.80;;;28.60;49.60;;;;;;4996985;28;20829;-85
2022/10/27 06:46:20;;;;;;;0.73;0.43;;;28.50;49.20;;;;;;4997990;28;20397;-85
2022/10/27 06:48:49;;;;;;;0.80;0.40;;;28.60;49.30;;;;;;4977840;28;20392;-83
2022/10/27 06:51:16;;;;;;;0.47;0.30;;;28.20;49.10;;;;;;4977552;28;20921;-79
2022/10/27 06:53:45;;;;;;;3.05;1.00;;;27.10;50.80;;;;;;4991804;28;20480;-77
2022/10/27 06:56:12;;;;;;;3.75;1.50;;;27.20;52.10;;;;;;4988913;28;20429;-82
2022/10/27 06:58:39;;;;;;;0.60;0.50;;;27.50;51.20;;;;;;4988217;28;20396;-81
2022/10/27 07:01:06;;;;;;;0.65;0.40;;;27.20;51.80;;;;;;4987210;28;20880;-81
2022/10/27 07:03:34;;;;;;;0.93;0.40;;;26.80;52.10;;;;;;4988342;28;20447;-82
2022/10/27 07:06:01;;;;;;;1.00;0.50;;;26.40;52.70;;;;;;4987434;28;20402;-81
2022/10/27 07:08:28;;;;;;;0.50;0.30;;;26.10;54.80;;;;;;4990028;28;20434;-90
2022/10/27 07:10:55;;;;;;;0.77;0.32;;;26.40;53.90;;;;;;4996433;28;20391;-85
2022/10/27 07:13:22;;;;;;;0.30;0.30;;;26.40;53.20;;;;;;4988900;28;20400;-82
2022/10/27 07:15:49;;;;;;;0.30;0.30;;;25.90;54.50;;;;;;4988291;28;20412;-83
2022/10/27 07:18:16;;;;;;;0.80;0.40;;;25.50;54.80;;;;;;4988645;28;20955;-82
2022/10/27 07:20:47;;;;;;;1.00;0.40;;;25.30;55.70;;;;;;4989501;28;20419;-82
2022/10/27 07:23:14;;;;;;;1.45;0.50;;;25.20;57.40;;;;;;4989750;28;20435;-84
2022/10/27 07:25:41;;;;;;;2.67;0.50;;;25.00;56.60;;;;;;4991178;28;20393;-84
2022/10/27 07:28:08;;;;;;;1.53;0.60;;;25.00;57.70;;;;;;4991044;28;20487;-80
2022/10/27 07:30:38;;;;;;;2.50;0.50;;;24.90;58.80;;;;;;4990188;28;20877;-83
2022/10/27 07:33:05;;;;;;;1.52;0.30;;;24.90;57.50;;;;;;4991241;28;20435;-82
2022/10/27 07:35:33;;;;;;;0.30;0.20;;;24.80;57.60;;;;;;4990804;28;20444;-81
2022/10/27 07:38:03;;;;;;;2.53;0.32;;;24.80;56.40;;;;;;4990355;28;20381;-80
2022/10/27 07:40:30;;;;;;;1.13;0.37;;;24.60;55.40;;;;;;4992910;28;20403;-81
2022/10/27 07:42:58;;;;;;;0.33;0.27;;;24.60;55.90;;;;;;4993401;28;20388;-84
2022/10/27 07:45:27;;;;;;;0.57;0.30;;;24.60;56.60;;;;;;4994753;28;20380;-85
2022/10/27 07:47:55;;;;;;;0.40;0.40;;;24.80;55.40;;;;;;4997324;28;20387;-83
2022/10/27 07:50:27;;;;;;;0.68;0.40;;;24.70;55.00;;;;;;4997005;28;20483;-83
2022/10/27 07:52:55;;;;;;;0.40;0.40;;;24.60;55.30;;;;;;4994496;28;20373;-83
2022/10/27 07:55:24;;;;;;;0.88;0.28;;;24.60;55.40;;;;;;4994542;28;20955;-84
2022/10/27 07:58:15;;;;;;;0.95;0.40;;;24.40;54.80;;;;;;4996139;28;20884;-80
2022/10/27 08:00:47;;;;;;;0.77;0.20;;;24.50;54.20;;;;;;4994367;28;20499;-82
2022/10/27 08:03:20;;;;;;;1.25;0.40;;;24.50;54.30;;;;;;5009659;28;20396;-84
2022/10/27 08:05:47;;;;;;;0.98;0.40;;;24.40;53.90;;;;;;4992626;28;20937;-81
2022/10/27 08:08:15;;;;;;;0.57;0.23;;;24.20;54.80;;;;;;4991884;28;20907;-82
2022/10/27 08:10:43;;;;;;;0.80;0.28;;;23.80;54.90;;;;;;4991599;28;20400;-81
2022/10/27 08:13:11;;;;;;;0.80;0.30;;;23.40;55.80;;;;;;4991947;28;20405;-81
2022/10/27 08:15:39;;;;;;;0.93;0.40;;;23.10;56.20;;;;;;4994973;28;20408;-81
2022/10/27 08:18:08;;;;;;;2.60;0.43;;;23.00;56.20;;;;;;4995053;28;20376;-83
2022/10/27 08:20:41;;;;;;;1.30;0.30;;;22.80;56.40;;;;;;4994517;28;20408;-79
2022/10/27 08:23:15;;;;;;;0.63;0.30;;;22.70;56.70;;;;;;4994296;28;20400;-82
2022/10/27 08:25:44;;;;;;;1.40;0.30;;;22.60;57.40;;;;;;4996177;28;20389;-81
2022/10/27 08:28:13;;;;;;;0.38;0.20;;;22.50;57.80;;;;;;4993266;28;20753;-80
2022/10/27 08:30:43;;;;;;;0.67;0.37;;;22.40;58.60;;;;;;4995056;28;20405;-81
2022/10/27 08:33:10;;;;;;;1.60;0.40;;;22.20;59.50;;;;;;4995702;28;20388;-80
2022/10/27 08:35:37;;;;;;;1.58;0.50;;;22.00;59.90;;;;;;4995490;28;20500;-80
2022/10/27 08:38:10;;;;;;;1.27;0.40;;;21.90;59.80;;;;;;4994441;28;20404;-82
2022/10/27 08:40:48;;;;;;;0.70;0.60;;;21.80;60.50;;;;;;5006343;28;20409;-81
2022/10/27 08:43:39;;;;;;;2.30;2.10;;;21.80;61.30;;;;;;4995514;28;20476;-80
2022/10/27 08:46:28;;;;;;;3.72;2.35;;;21.70;61.00;;;;;;4999374;28;20954;-81
2022/10/27 08:49:01;;;;;;;4.28;2.10;;;21.70;62.00;;;;;;4991047;28;20405;-81
2022/10/27 08:51:32;;;;;;;6.23;4.10;;;21.50;62.80;;;;;;4986320;28;20408;-82
2022/10/27 08:53:59;;;;;;;2.42;2.20;;;21.40;62.70;;;;;;4993615;28;20730;-82
2022/10/27 08:56:33;;;;;;;3.50;2.50;;;21.30;63.60;;;;;;4993725;28;20416;-82
2022/10/27 08:59:02;;;;;;;1.70;1.15;;;21.20;63.90;;;;;;4995852;28;20385;-82
2022/10/27 09:01:47;;;;;;;2.33;1.20;;;21.20;63.70;;;;;;4993295;28;20451;-82
2022/10/27 09:04:23;;;;;;;2.45;1.35;;;21.20;64.90;;;;;;4994016;28;20385;-81
2022/10/27 09:07:10;;;;;;;1.92;0.90;;;21.20;64.60;;;;;;4992506;28;20813;-81
2022/10/27 09:09:43;;;;;;;1.80;0.70;;;21.10;65.20;;;;;;4993474;28;20384;-81
2022/10/27 09:12:27;;;;;;;2.05;0.60;;;21.20;65.70;;;;;;4994035;28;20884;-81
2022/10/27 09:15:06;;;;;;;0.82;0.65;;;21.10;66.60;;;;;;4993539;28;20512;-83
2022/10/27 09:17:42;;;;;;;1.48;0.63;;;21.00;66.80;;;;;;4993493;28;20872;-80
2022/10/27 09:20:19;;;;;;;1.60;0.70;;;21.00;67.40;;;;;;4993776;28;20410;-82
2022/10/27 09:22:49;;;;;;;1.10;0.70;;;20.80;68.30;;;;;;4993522;28;20415;-79
2022/10/27 09:25:19;;;;;;;1.45;0.63;;;20.70;69.00;;;;;;4992328;28;20834;-81
2022/10/27 09:27:52;;;;;;;1.20;0.60;;;20.70;69.60;;;;;;4992715;28;20408;-78
2022/10/27 09:30:19;;;;;;;0.68;0.60;;;20.60;69.60;;;;;;4992754;28;20397;-78
2022/10/27 09:32:51;;;;;;;2.08;0.50;;;20.60;70.20;;;;;;4993842;28;20376;-81
2022/10/27 09:35:29;;;;;;;1.00;0.50;;;20.60;70.70;;;;;;4993336;28;20444;-81
2022/10/27 09:37:58;;;;;;;1.70;0.68;;;20.60;71.00;;;;;;4990313;28;20450;-79
2022/10/27 09:40:29;;;;;;;2.05;0.60;;;20.50;71.40;;;;;;4993711;28;20895;-79
2022/10/27 09:42:56;;;;;;;1.90;0.60;;;20.40;71.70;;;;;;4989877;28;20377;-79
2022/10/27 09:45:28;;;;;;;0.77;0.50;;;20.20;73.40;;;;;;4992979;28;20711;-83
2022/10/27 09:48:04;;;;;;;0.40;0.40;;;20.20;74.20;;;;;;4994597;28;20376;-81
2022/10/27 09:50:45;;;;;;;0.70;0.50;;;20.20;74.50;;;;;;4993763;28;20403;-79
2022/10/27 09:53:38;;;;;;;1.48;0.50;;;20.20;74.20;;;;;;4990630;28;20931;-82
2022/10/27 09:56:08;;;;;;;1.25;0.50;;;20.30;74.20;;;;;;5004966;28;20763;-80
2022/10/27 09:59:19;;;;;;;1.23;0.50;;;20.40;73.90;;;;;;4994678;28;20396;-81
2022/10/27 10:01:56;;;;;;;1.10;0.60;;;20.40;74.10;;;;;;4953102;28;20397;-79
2022/10/27 10:04:32;;;;;;;1.63;0.55;;;20.40;74.60;;;;;;4952858;29;20468;-78
2022/10/27 10:07:02;;;;;;;1.10;0.57;;;20.40;74.90;;;;;;4951864;28;20385;-80
2022/10/27 10:09:29;;;;;;;0.65;0.43;;;20.30;74.80;;;;;;4960501;28;20399;-79
2022/10/27 10:12:21;;;;;;;0.85;0.50;;;20.30;74.70;;;;;;4958204;28;20491;-81
2022/10/27 10:14:48;;;;;;;0.60;0.40;;;20.30;74.80;;;;;;4943421;29;20479;-78
2022/10/27 10:17:23;;;;;;;1.75;0.60;;;20.30;75.40;;;;;;4953103;29;20400;-78
2022/10/27 10:19:53;;;;;;;1.55;0.75;;;20.20;76.00;;;;;;4954742;28;20399;-81
2022/10/27 10:22:22;;;;;;;0.88;0.80;;;20.20;76.20;;;;;;4955658;29;20396;-77
2022/10/27 10:24:50;;;;;;;1.38;0.90;;;20.30;76.70;;;;;;4938885;29;20903;-82
2022/10/27 10:27:35;;;;;;;2.20;0.90;;;20.20;76.80;;;;;;4938744;29;20397;-79
2022/10/27 10:30:04;;;;;;;1.42;0.70;;;20.10;77.60;;;;;;4953332;28;21329;-80
2022/10/27 10:32:35;;;;;;;0.93;0.80;;;20.10;78.60;;;;;;4958078;28;20412;-79
2022/10/27 10:35:42;;;;;;;2.90;0.70;;;20.00;79.20;;;;;;4954275;28;20415;-81
2022/10/27 10:38:29;;;;;;;2.08;0.80;;;20.00;78.40;;;;;;4930138;29;20398;-77
2022/10/27 10:41:04;;;;;;;0.80;0.60;;;20.00;79.20;;;;;;4932953;29;20429;-80
2022/10/27 10:43:32;;;;;;;1.30;0.68;;;19.90;80.40;;;;;;4933526;29;20392;-78
2022/10/27 10:45:59;;;;;;;2.40;0.60;;;19.80;80.60;;;;;;4902452;29;20394;-79
2022/10/27 10:48:48;;;;;;;1.88;0.52;;;19.90;80.70;;;;;;4933802;29;20393;-83
2022/10/27 10:51:32;;;;;;;1.75;0.40;;;20.00;80.90;;;;;;4916884;29;20450;-79
2022/10/27 10:54:08;;;;;;;0.75;0.30;;;20.00;81.40;;;;;;4937373;29;20396;-78
2022/10/27 10:56:38;;;;;;;0.50;0.40;;;20.10;81.40;;;;;;4931119;29;20513;-80
2022/10/27 10:59:16;;;;;;;0.50;0.50;;;20.10;81.40;;;;;;4936674;29;20943;-80
2022/10/27 11:02:01;;;;;;;0.80;0.40;;;20.20;81.30;;;;;;4918428;29;20398;-81
2022/10/27 11:04:31;;;;;;;0.60;0.40;;;20.20;80.70;;;;;;4932584;29;20392;-81
2022/10/27 11:07:06;;;;;;;1.63;0.50;;;20.30;80.70;;;;;;4930477;29;20473;-79
2022/10/27 11:10:16;;;;;;;1.23;0.40;;;20.30;81.10;;;;;;4931461;29;20390;-79
2022/10/27 11:13:01;;;;;;;3.25;0.68;;;20.20;81.20;;;;;;4892723;29;20401;-81
2022/10/27 11:16:00;;;;;;;1.37;0.47;;;20.10;81.90;;;;;;4914926;28;20424;-81
2022/10/27 11:18:51;;;;;;;1.38;0.60;;;20.10;82.20;;;;;;4944747;28;20420;-79
2022/10/27 11:21:59;;;;;;;1.50;0.50;;;20.10;82.10;;;;;;4949515;28;20412;-80
2022/10/27 11:24:40;;;;;;;1.60;0.50;;;20.00;82.80;;;;;;4922659;29;20386;-81
2022/10/27 11:27:31;;;;;;;1.60;0.60;;;20.00;82.90;;;;;;4930878;29;20413;-80
2022/10/27 11:30:13;;;;;;;1.40;0.50;;;20.00;82.80;;;;;;4930577;29;20393;-81
2022/10/27 11:33:11;;;;;;;0.55;0.50;;;19.90;82.80;;;;;;4929690;29;20921;-79
2022/10/27 11:35:58;;;;;;;1.00;0.40;;;20.00;83.40;;;;;;4926273;29;20426;-78
2022/10/27 11:38:42;;;;;;;0.40;0.40;;;19.90;83.80;;;;;;4930359;29;20397;-80
2022/10/27 11:41:32;;;;;;;1.50;0.40;;;19.90;84.00;;;;;;4930711;29;20401;-82
2022/10/27 11:44:23;;;;;;;1.43;0.50;;;19.80;84.60;;;;;;4914533;29;20424;-80
2022/10/27 11:47:09;;;;;;;1.00;0.43;;;19.80;85.30;;;;;;4930288;29;20401;-81
2022/10/27 11:49:55;;;;;;;1.47;0.40;;;19.70;84.90;;;;;;4948485;28;20453;-81
2022/10/27 11:52:38;;;;;;;1.20;0.50;;;19.70;84.90;;;;;;4972371;28;20857;-81
2022/10/27 11:55:08;;;;;;;0.95;0.40;;;19.70;86.10;;;;;;4962312;28;20480;-80
2022/10/27 11:58:05;;;;;;;0.98;0.38;;;19.60;86.20;;;;;;4972657;28;20390;-78
2022/10/27 12:00:48;;;;;;;0.75;0.50;;;19.50;86.80;;;;;;4987759;28;20397;-78
2022/10/27 12:03:35;;;;;;;2.05;0.40;;;19.50;87.70;;;;;;4994299;28;20397;-81
2022/10/27 12:06:22;;;;;;;0.70;0.40;;;19.50;87.30;;;;;;4993100;28;20400;-81
2022/10/27 12:09:10;;;;;;;1.02;0.40;;;19.40;87.80;;;;;;4953436;28;20432;-81
2022/10/27 12:12:14;;;;;;;1.15;0.40;;;19.40;88.40;;;;;;4953446;29;20411;-82
2022/10/27 12:14:57;;;;;;;1.90;0.40;;;19.30;88.50;;;;;;4953140;29;20408;-83
2022/10/27 12:17:45;;;;;;;1.85;0.50;;;19.30;88.80;;;;;;4952333;29;20828;-81
2022/10/27 12:20:23;;;;;;;1.40;0.50;;;19.30;89.40;;;;;;4936436;29;20770;-80
2022/10/27 12:22:59;;;;;;;2.90;0.47;;;19.30;89.20;;;;;;4952808;29;20396;-80
2022/10/27 12:25:39;;;;;;;0.60;0.40;;;19.30;90.00;;;;;;4952809;29;20412;-79
2022/10/27 12:28:12;;;;;;;1.00;0.40;;;19.20;90.20;;;;;;4953210;29;20757;-80
2022/10/27 12:30:44;;;;;;;0.52;0.43;;;19.20;90.50;;;;;;4952831;29;20875;-80
2022/10/27 12:33:38;;;;;;;1.02;0.40;;;19.10;90.70;;;;;;4953449;29;20389;-79
2022/10/27 12:36:23;;;;;;;4.65;0.50;;;19.10;90.80;;;;;;4953438;29;20419;-79
2022/10/27 12:39:13;;;;;;;2.00;0.43;;;19.10;91.00;;;;;;4954369;29;20447;-78
2022/10/27 12:42:07;;;;;;;0.73;0.40;;;19.00;91.00;;;;;;4953245;29;20399;-78
2022/10/27 12:44:52;;;;;;;0.57;0.50;;;19.00;92.00;;;;;;4953272;29;20726;-76
2022/10/27 12:47:39;;;;;;;1.77;0.50;;;18.90;92.10;;;;;;4994544;28;20412;-79
2022/10/27 12:50:15;;;;;;;1.30;0.50;;;18.80;93.10;;;;;;4983208;28;20389;-79
2022/10/27 12:52:54;;;;;;;1.42;0.50;;;18.70;93.30;;;;;;4995819;28;20395;-80
2022/10/27 12:55:26;;;;;;;0.70;0.40;;;18.70;93.30;;;;;;4995740;28;20409;-79
2022/10/27 12:58:12;;;;;;;1.33;0.50;;;18.60;93.50;;;;;;4996240;28;20385;-78
2022/10/27 13:01:02;;;;;;;1.48;0.50;;;18.60;93.90;;;;;;4999437;28;20401;-79
2022/10/27 13:03:54;;;;;;;0.75;0.50;;;18.60;93.50;;;;;;4989759;28;20420;-78
2022/10/27 13:06:51;;;;;;;1.08;0.50;;;18.60;94.00;;;;;;4997221;28;20389;-78
2022/10/27 13:09:53;;;;;;;1.30;0.52;;;18.50;94.00;;;;;;4996234;28;20467;-79
2022/10/27 13:12:55;;;;;;;0.50;0.50;;;18.60;93.60;;;;;;5003068;28;20392;-79
2022/10/27 13:15:45;;;;;;;1.77;0.60;;;18.60;93.40;;;;;;4945486;29;20445;-79
2022/10/27 13:18:24;;;;;;;1.00;0.60;;;18.60;93.90;;;;;;4948085;29;20398;-78
2022/10/27 13:21:18;;;;;;;2.65;0.60;;;18.50;94.10;;;;;;4942698;29;20885;-79
2022/10/27 13:23:56;;;;;;;0.67;0.60;;;18.50;94.40;;;;;;4927777;29;20420;-80
2022/10/27 13:26:53;;;;;;;1.83;0.60;;;18.40;94.40;;;;;;4933456;29;20513;-81
2022/10/27 13:29:29;;;;;;;3.58;1.80;;;18.40;94.20;;;;;;4931627;29;20675;-79
2022/10/27 13:32:16;;;;;;;3.03;1.95;;;18.30;95.50;;;;;;4932946;29;20735;-81
2022/10/27 13:35:02;;;;;;;4.70;1.38;;;18.10;96.70;;;;;;4933764;29;20416;-80
2022/10/27 13:37:48;;;;;;;2.25;0.77;;;18.00;97.20;;;;;;4933851;29;20850;-79
2022/10/27 13:40:21;;;;;;;3.20;0.80;;;17.90;97.70;;;;;;4939561;29;20394;-79
2022/10/27 13:42:50;;;;;;;2.40;0.80;;;17.80;98.40;;;;;;4940856;29;20431;-80